Time;durP1;ratioP1;P1;durP2;ratioP2;P2;SDS_P1;SDS_P2;PMS_P1;PMS_P2;Temp;Humidity;BMP_temperature;BMP_pressure;BME280_temperature;BME280_humidity;BME280_pressure;Samples;Min_cycle;Max_cycle;Signal;HPM_P1;HPM_P2
2021/12/16 00:05:50;;;;;;;32.33;17.37;;;;;;;;;;5004626;28;20217;-77
2021/12/16 00:08:30;;;;;;;29.47;16.83;;;;;;;;;;5035177;28;20200;-77
2021/12/16 00:19:39;;;;;;;35.23;17.50;;;;;;;;;;5034690;28;20196;-77
2021/12/16 00:28:57;;;;;;;34.13;17.70;;;;;;;;;;5034017;28;20212;-77
2021/12/16 00:33:34;;;;;;;33.57;18.03;;;;;;;;;;5035091;28;20180;-77
2021/12/16 00:36:01;;;;;;;32.10;17.63;;;;;;;;;;5021558;28;20196;-77
2021/12/16 00:38:31;;;;;;;30.37;17.57;;;;;;;;;;5033338;28;20206;-76
2021/12/16 00:40:59;;;;;;;32.53;17.73;;;;;;;;;;5034092;28;20207;-76
2021/12/16 00:43:41;;;;;;;32.60;18.33;;;;;;;;;;5017678;28;20205;-76
2021/12/16 00:54:09;;;;;;;33.47;18.67;;;;;;;;;;5035477;28;20267;-76
2021/12/16 00:56:36;;;;;;;35.53;19.10;;;;;;;;;;5033807;28;20173;-76
2021/12/16 00:59:05;;;;;;;32.70;17.97;;;;;;;;;;5033465;28;20295;-76
2021/12/16 01:07:17;;;;;;;37.07;18.53;;;;;;;;;;5034761;28;20155;-76
2021/12/16 01:33:27;;;;;;;33.77;18.07;;;;;;;;;;5033422;28;20279;-76
2021/12/16 01:50:25;;;;;;;34.50;17.77;;;;;;;;;;5033092;28;20175;-77
2021/12/16 01:53:11;;;;;;;31.63;17.47;;;;;;;;;;5017197;28;20204;-77
2021/12/16 01:56:33;;;;;;;34.07;18.10;;;;;;;;;;5034314;28;20183;-77
2021/12/16 01:58:42;;;;;;;34.13;18.40;;;;;;;;;;5033299;28;20202;-77
2021/12/16 02:01:16;;;;;;;32.73;18.50;;;;;;;;;;5032585;28;20204;-77
2021/12/16 02:03:52;;;;;;;32.30;17.60;;;;;;;;;;5032627;28;20223;-77
2021/12/16 02:08:44;;;;;;;35.00;18.00;;;;;;;;;;5033453;28;20196;-77
2021/12/16 02:33:10;;;;;;;32.00;17.53;;;;;;;;;;5038398;28;20179;-77
2021/12/16 02:35:44;;;;;;;35.63;18.03;;;;;;;;;;5035244;28;20199;-77
2021/12/16 02:38:13;;;;;;;33.93;18.57;;;;;;;;;;5035165;28;20210;-77
2021/12/16 02:40:39;;;;;;;34.40;18.60;;;;;;;;;;5035227;28;20186;-77
2021/12/16 02:43:54;;;;;;;34.40;18.50;;;;;;;;;;5018893;28;20204;-77
2021/12/16 02:48:39;;;;;;;30.53;17.50;;;;;;;;;;5052896;28;20287;-77
2021/12/16 02:51:15;;;;;;;31.37;17.30;;;;;;;;;;5035126;28;20225;-77
2021/12/16 02:53:43;;;;;;;33.80;18.90;;;;;;;;;;5034905;28;20700;-77
2021/12/16 02:56:09;;;;;;;31.43;17.33;;;;;;;;;;5018603;28;20188;-77
2021/12/16 02:58:37;;;;;;;35.70;18.77;;;;;;;;;;5034738;28;20208;-77
2021/12/16 03:01:06;;;;;;;31.27;18.03;;;;;;;;;;5052344;28;20176;-77
2021/12/16 03:03:34;;;;;;;31.27;17.10;;;;;;;;;;5018663;28;20204;-77
2021/12/16 03:06:02;;;;;;;34.27;18.50;;;;;;;;;;5034792;28;20184;-77
2021/12/16 03:08:29;;;;;;;34.60;18.20;;;;;;;;;;5034486;28;20199;-77
2021/12/16 03:11:07;;;;;;;35.03;18.40;;;;;;;;;;5034867;28;20211;-77
2021/12/16 03:13:44;;;;;;;29.73;16.43;;;;;;;;;;5034638;28;20172;-77
2021/12/16 03:16:33;;;;;;;33.37;17.17;;;;;;;;;;5034875;28;20603;-77
2021/12/16 03:19:21;;;;;;;33.20;18.07;;;;;;;;;;5034603;28;20218;-77
2021/12/16 03:21:53;;;;;;;32.43;17.70;;;;;;;;;;5021410;28;20628;-77
2021/12/16 03:35:24;;;;;;;30.23;17.80;;;;;;;;;;5072678;28;20160;-76
2021/12/16 03:37:53;;;;;;;30.87;17.57;;;;;;;;;;5071594;28;20236;-76
2021/12/16 03:40:22;;;;;;;35.97;19.07;;;;;;;;;;5037950;28;20172;-76
2021/12/16 03:42:53;;;;;;;32.43;17.93;;;;;;;;;;5054072;28;20198;-77
2021/12/16 03:48:36;;;;;;;32.43;18.17;;;;;;;;;;5072071;28;20197;-77
2021/12/16 03:51:02;;;;;;;33.17;18.80;;;;;;;;;;5054030;28;20176;-77
2021/12/16 03:53:28;;;;;;;32.87;18.63;;;;;;;;;;5038059;28;20180;-77
2021/12/16 03:55:55;;;;;;;34.63;18.97;;;;;;;;;;5054225;28;20205;-77
2021/12/16 03:58:21;;;;;;;31.37;17.50;;;;;;;;;;5054234;28;20194;-77
2021/12/16 04:00:51;;;;;;;30.53;17.73;;;;;;;;;;5037501;28;20638;-77
2021/12/16 04:03:17;;;;;;;26.93;16.17;;;;;;;;;;5054119;28;20209;-77
2021/12/16 04:05:45;;;;;;;30.47;17.27;;;;;;;;;;5054351;28;20171;-77
2021/12/16 04:08:11;;;;;;;31.40;18.30;;;;;;;;;;5037496;28;20635;-77
2021/12/16 04:11:05;;;;;;;33.77;18.43;;;;;;;;;;5054022;28;20177;-77
2021/12/16 04:13:36;;;;;;;30.17;16.53;;;;;;;;;;5051607;28;20185;-77
2021/12/16 04:16:03;;;;;;;27.60;15.53;;;;;;;;;;5038239;28;20650;-77
2021/12/16 04:18:29;;;;;;;29.00;16.53;;;;;;;;;;5071785;28;20196;-77
2021/12/16 04:20:55;;;;;;;30.93;17.30;;;;;;;;;;5056021;28;20624;-77
2021/12/16 04:23:21;;;;;;;27.40;16.00;;;;;;;;;;5041031;28;20305;-77
2021/12/16 04:25:48;;;;;;;32.20;16.90;;;;;;;;;;5057782;28;20172;-77
2021/12/16 04:28:17;;;;;;;31.43;16.77;;;;;;;;;;5057430;28;20192;-77
2021/12/16 04:30:43;;;;;;;29.40;15.77;;;;;;;;;;5040991;28;20202;-77
2021/12/16 04:33:09;;;;;;;29.27;15.87;;;;;;;;;;5057742;28;20547;-77
2021/12/16 04:35:36;;;;;;;27.60;15.53;;;;;;;;;;5057567;28;20179;-77
2021/12/16 04:38:03;;;;;;;29.63;16.17;;;;;;;;;;5041013;28;20207;-77
2021/12/16 04:40:29;;;;;;;29.70;15.47;;;;;;;;;;5057412;28;20179;-77
2021/12/16 04:43:00;;;;;;;26.17;15.00;;;;;;;;;;5057170;28;20200;-77
2021/12/16 04:45:27;;;;;;;31.50;16.60;;;;;;;;;;5041644;28;20177;-77
2021/12/16 04:47:53;;;;;;;30.33;16.50;;;;;;;;;;5057366;28;20175;-77
2021/12/16 04:50:19;;;;;;;31.20;17.33;;;;;;;;;;5056963;28;20216;-77
2021/12/16 04:52:46;;;;;;;27.60;15.87;;;;;;;;;;5057008;28;20186;-77
2021/12/16 04:55:13;;;;;;;31.07;16.67;;;;;;;;;;5040574;28;20193;-77
2021/12/16 04:57:39;;;;;;;29.00;15.60;;;;;;;;;;5056910;28;20264;-77
2021/12/16 05:00:07;;;;;;;28.20;16.60;;;;;;;;;;5040663;28;20215;-77
2021/12/16 05:02:33;;;;;;;27.50;15.33;;;;;;;;;;5056956;28;20218;-77
2021/12/16 05:04:59;;;;;;;28.60;15.03;;;;;;;;;;5040218;28;20178;-77
2021/12/16 05:07:25;;;;;;;28.60;16.10;;;;;;;;;;5040671;28;20190;-77
2021/12/16 05:10:10;;;;;;;29.83;15.90;;;;;;;;;;5056996;28;20191;-77
2021/12/16 05:12:38;;;;;;;27.13;15.30;;;;;;;;;;5056616;28;20638;-77
2021/12/16 05:15:07;;;;;;;26.67;15.20;;;;;;;;;;5056591;28;20262;-77
2021/12/16 05:17:36;;;;;;;28.00;15.23;;;;;;;;;;5040399;28;20190;-77
2021/12/16 05:20:08;;;;;;;25.73;15.23;;;;;;;;;;5056895;28;20585;-77
2021/12/16 05:25:28;;;;;;;27.63;15.63;;;;;;;;;;5074798;28;20170;-77
2021/12/16 05:27:54;;;;;;;32.93;15.63;;;;;;;;;;5041217;28;20173;-77
2021/12/16 05:30:20;;;;;;;29.13;15.83;;;;;;;;;;5039956;28;20186;-77
2021/12/16 05:32:46;;;;;;;27.93;15.07;;;;;;;;;;5055764;22;20254;-77
2021/12/16 05:35:14;;;;;;;24.87;14.47;;;;;;;;;;5069662;28;20263;-77
2021/12/16 05:37:41;;;;;;;24.33;14.17;;;;;;;;;;5069635;28;20172;-77
2021/12/16 05:40:08;;;;;;;30.47;14.63;;;;;;;;;;5069667;28;20270;-76
2021/12/16 05:42:34;;;;;;;30.03;16.33;;;;;;;;;;5066188;28;20224;-76
2021/12/16 05:45:00;;;;;;;30.47;16.83;;;;;;;;;;5066059;28;20183;-77
2021/12/16 05:47:26;;;;;;;31.23;16.23;;;;;;;;;;5050037;28;20269;-77
2021/12/16 05:49:52;;;;;;;26.97;14.83;;;;;;;;;;5049468;28;20534;-77
2021/12/16 05:52:18;;;;;;;26.70;15.07;;;;;;;;;;5049432;28;20584;-77
2021/12/16 05:54:44;;;;;;;27.27;16.07;;;;;;;;;;5065908;28;20207;-77
2021/12/16 05:57:10;;;;;;;30.23;15.67;;;;;;;;;;5034221;28;20196;-76
2021/12/16 05:59:36;;;;;;;28.00;15.80;;;;;;;;;;5049547;28;20181;-76
2021/12/16 06:02:02;;;;;;;28.50;16.10;;;;;;;;;;5065491;28;20669;-76
2021/12/16 06:04:28;;;;;;;29.37;16.07;;;;;;;;;;5066010;28;20202;-77
2021/12/16 06:06:54;;;;;;;29.43;16.53;;;;;;;;;;5065641;28;20178;-77
2021/12/16 06:09:20;;;;;;;29.70;15.73;;;;;;;;;;5065886;28;20175;-77
2021/12/16 06:11:48;;;;;;;28.77;15.77;;;;;;;;;;5048857;28;20208;-77
2021/12/16 06:14:40;;;;;;;29.27;16.07;;;;;;;;;;5049664;28;20199;-77
2021/12/16 06:27:53;;;;;;;28.13;14.97;;;;;;;;;;5032808;28;20237;-77
2021/12/16 06:30:25;;;;;;;29.80;15.80;;;;;;;;;;5048757;28;20215;-77
2021/12/16 06:32:51;;;;;;;28.07;15.67;;;;;;;;;;5048547;28;20266;-77
2021/12/16 06:35:18;;;;;;;29.33;16.63;;;;;;;;;;5033126;28;20209;-77
2021/12/16 06:37:44;;;;;;;30.97;17.33;;;;;;;;;;5065140;28;20183;-77
2021/12/16 06:46:20;;;;;;;33.30;17.17;;;;;;;;;;5033064;28;20218;-77
2021/12/16 06:48:54;;;;;;;31.13;17.23;;;;;;;;;;5031675;28;20171;-77
2021/12/16 06:51:33;;;;;;;30.43;16.87;;;;;;;;;;5032970;28;20724;-77
2021/12/16 06:54:04;;;;;;;32.70;16.93;;;;;;;;;;5050402;28;20206;-77
2021/12/16 06:56:37;;;;;;;27.60;13.77;;;;;;;;;;5064960;28;20207;-77
2021/12/16 06:59:11;;;;;;;25.93;13.53;;;;;;;;;;5065382;28;20610;-78
2021/12/16 07:01:40;;;;;;;26.87;15.53;;;;;;;;;;5049833;28;20205;-78
2021/12/16 07:04:13;;;;;;;24.57;14.37;;;;;;;;;;5065598;28;20288;-78
2021/12/16 07:06:40;;;;;;;21.93;13.93;;;;;;;;;;5048652;28;20644;-78
2021/12/16 07:09:13;;;;;;;22.70;13.50;;;;;;;;;;5048361;28;20204;-79
2021/12/16 07:11:41;;;;;;;22.87;13.47;;;;;;;;;;5049139;28;20236;-78
2021/12/16 07:14:12;;;;;;;20.67;12.83;;;;;;;;;;5065942;28;20177;-80
2021/12/16 07:16:38;;;;;;;23.57;14.97;;;;;;;;;;5049258;28;20171;-78
2021/12/16 07:19:04;;;;;;;24.30;14.47;;;;;;;;;;5065096;28;20256;-77
2021/12/16 07:21:37;;;;;;;23.97;14.57;;;;;;;;;;5064577;28;20201;-78
2021/12/16 07:24:04;;;;;;;22.27;13.60;;;;;;;;;;5049148;28;20197;-77
2021/12/16 07:26:29;;;;;;;23.73;13.90;;;;;;;;;;5032616;28;20170;-78
2021/12/16 07:28:55;;;;;;;20.97;13.03;;;;;;;;;;5064809;28;20184;-78
2021/12/16 07:31:22;;;;;;;27.47;16.10;;;;;;;;;;5047964;28;20209;-77
2021/12/16 07:33:48;;;;;;;29.70;16.90;;;;;;;;;;5048768;28;20178;-77
2021/12/16 07:36:18;;;;;;;24.50;14.00;;;;;;;;;;5065249;28;20185;-77
2021/12/16 07:38:44;;;;;;;25.50;14.47;;;;;;;;;;5065362;28;20165;-77
2021/12/16 07:41:11;;;;;;;27.50;15.53;;;;;;;;;;5049211;28;20185;-78
2021/12/16 07:46:06;;;;;;;31.07;17.00;;;;;;;;;;5032679;28;20177;-78
2021/12/16 07:48:32;;;;;;;29.83;15.90;;;;;;;;;;5066140;28;20181;-78
2021/12/16 07:50:59;;;;;;;31.07;17.07;;;;;;;;;;5065732;28;20210;-78
2021/12/16 07:53:25;;;;;;;32.07;17.10;;;;;;;;;;5065785;28;20177;-78
2021/12/16 07:55:51;;;;;;;29.87;17.20;;;;;;;;;;5069603;28;20669;-78
2021/12/16 07:58:19;;;;;;;31.23;16.80;;;;;;;;;;5053336;28;20705;-79
2021/12/16 08:00:45;;;;;;;33.30;17.73;;;;;;;;;;5054318;28;20183;-78
2021/12/16 08:03:12;;;;;;;27.83;15.87;;;;;;;;;;5037524;28;20682;-79
2021/12/16 08:05:40;;;;;;;30.23;17.10;;;;;;;;;;5070981;28;20588;-78
2021/12/16 08:08:08;;;;;;;32.07;17.40;;;;;;;;;;5052612;28;20186;-77
2021/12/16 08:10:34;;;;;;;29.07;16.40;;;;;;;;;;5052321;28;20646;-77
2021/12/16 08:13:00;;;;;;;32.27;16.93;;;;;;;;;;5068239;28;20259;-77
2021/12/16 08:15:27;;;;;;;30.20;16.27;;;;;;;;;;5035358;28;20181;-77
2021/12/16 08:17:54;;;;;;;34.60;18.23;;;;;;;;;;5036905;28;20181;-78
2021/12/16 08:20:21;;;;;;;59.77;31.87;;;;;;;;;;5035549;28;20177;-81
2021/12/16 08:22:48;;;;;;;34.43;18.67;;;;;;;;;;5035173;28;20236;-78
2021/12/16 08:25:15;;;;;;;34.97;18.83;;;;;;;;;;5069231;28;20185;-79
2021/12/16 08:27:41;;;;;;;30.77;17.50;;;;;;;;;;5069609;28;20180;-78
2021/12/16 08:30:11;;;;;;;32.17;17.80;;;;;;;;;;5069179;28;20658;-77
2021/12/16 08:32:37;;;;;;;34.20;16.80;;;;;;;;;;5068816;28;20300;-79
2021/12/16 08:35:04;;;;;;;31.23;17.30;;;;;;;;;;5052638;28;20176;-79
2021/12/16 08:37:30;;;;;;;29.53;16.97;;;;;;;;;;5052923;28;20258;-79
2021/12/16 08:39:56;;;;;;;34.43;18.50;;;;;;;;;;5069059;28;20181;-79
2021/12/16 08:42:22;;;;;;;32.80;17.43;;;;;;;;;;5069426;28;20201;-79
2021/12/16 08:44:49;;;;;;;30.93;16.63;;;;;;;;;;5052435;28;20219;-78
2021/12/16 08:47:16;;;;;;;30.93;16.97;;;;;;;;;;5069504;28;20177;-79
2021/12/16 08:49:43;;;;;;;29.27;16.90;;;;;;;;;;5053228;28;20181;-79
2021/12/16 08:52:11;;;;;;;32.13;17.53;;;;;;;;;;5068942;28;20613;-78
2021/12/16 08:54:37;;;;;;;33.37;18.80;;;;;;;;;;5069727;28;20691;-78
2021/12/16 08:57:04;;;;;;;34.57;18.90;;;;;;;;;;5053565;28;20188;-79
2021/12/16 08:59:30;;;;;;;33.17;17.83;;;;;;;;;;5070719;28;20179;-79
2021/12/16 09:01:57;;;;;;;34.33;18.63;;;;;;;;;;5069368;28;20282;-79
2021/12/16 09:04:24;;;;;;;32.23;17.87;;;;;;;;;;5052858;28;20209;-79
2021/12/16 09:06:51;;;;;;;32.07;18.47;;;;;;;;;;5051218;28;20173;-78
2021/12/16 09:09:17;;;;;;;35.03;18.27;;;;;;;;;;5036772;28;20279;-79
2021/12/16 09:12:01;;;;;;;31.80;18.10;;;;;;;;;;5069292;28;20188;-79
2021/12/16 09:14:27;;;;;;;30.47;17.63;;;;;;;;;;5056613;28;20177;-78
2021/12/16 09:16:53;;;;;;;33.33;17.73;;;;;;;;;;5070510;28;20653;-79
2021/12/16 09:19:19;;;;;;;31.53;18.10;;;;;;;;;;5067831;28;20274;-79
2021/12/16 09:21:45;;;;;;;31.17;17.63;;;;;;;;;;5067541;28;20198;-79
2021/12/16 09:24:14;;;;;;;32.00;17.57;;;;;;;;;;5068629;28;20208;-79
2021/12/16 09:26:41;;;;;;;32.40;18.10;;;;;;;;;;5052205;28;20272;-79
2021/12/16 09:29:07;;;;;;;32.70;18.13;;;;;;;;;;5068109;28;20174;-79
2021/12/16 09:31:33;;;;;;;33.63;17.47;;;;;;;;;;5067050;28;20303;-78
2021/12/16 09:34:06;;;;;;;33.67;18.80;;;;;;;;;;5051197;28;20224;-80
2021/12/16 09:36:32;;;;;;;31.43;17.90;;;;;;;;;;5069160;28;20162;-79
2021/12/16 09:38:58;;;;;;;31.30;18.90;;;;;;;;;;5069831;28;20560;-81
2021/12/16 09:41:25;;;;;;;29.33;17.33;;;;;;;;;;5070443;28;20197;-81
2021/12/16 09:43:52;;;;;;;29.07;17.03;;;;;;;;;;5068783;28;20207;-79
2021/12/16 09:46:20;;;;;;;30.70;17.33;;;;;;;;;;5067380;28;20237;-78
2021/12/16 09:48:46;;;;;;;31.03;17.13;;;;;;;;;;5051040;28;20182;-78
2021/12/16 09:51:16;;;;;;;30.27;17.03;;;;;;;;;;5050381;28;20216;-80
2021/12/16 09:53:43;;;;;;;30.13;17.43;;;;;;;;;;5052424;28;20181;-81
2021/12/16 09:56:09;;;;;;;30.03;17.43;;;;;;;;;;5051916;28;20324;-79
2021/12/16 09:58:37;;;;;;;27.00;16.37;;;;;;;;;;5067473;28;20184;-80
2021/12/16 10:01:04;;;;;;;30.60;17.43;;;;;;;;;;5067121;28;20185;-79
2021/12/16 10:03:30;;;;;;;31.67;16.77;;;;;;;;;;5034629;28;20217;-81
2021/12/16 10:05:56;;;;;;;26.37;16.50;;;;;;;;;;5065931;28;20177;-81
2021/12/16 10:08:23;;;;;;;32.33;17.60;;;;;;;;;;5066137;28;20655;-81
2021/12/16 10:10:49;;;;;;;28.63;16.67;;;;;;;;;;5050019;28;20592;-81
2021/12/16 10:13:22;;;;;;;26.40;15.13;;;;;;;;;;5049772;28;20275;-81
2021/12/16 10:18:19;;;;;;;26.13;16.60;;;;;;;;;;5033224;28;20181;-80
2021/12/16 10:20:49;;;;;;;25.97;16.47;;;;;;;;;;5049176;28;20189;-81
2021/12/16 10:23:18;;;;;;;28.73;16.30;;;;;;;;;;5033968;28;20590;-81
2021/12/16 10:25:45;;;;;;;25.57;15.83;;;;;;;;;;5049475;28;20181;-78
2021/12/16 10:28:14;;;;;;;27.03;16.13;;;;;;;;;;5065835;28;20185;-78
2021/12/16 10:30:45;;;;;;;27.97;15.50;;;;;;;;;;5065752;28;20209;-79
2021/12/16 10:33:20;;;;;;;26.90;16.97;;;;;;;;;;5065670;28;20209;-79
2021/12/16 10:35:47;;;;;;;24.83;15.43;;;;;;;;;;5066059;28;20185;-79
2021/12/16 10:38:15;;;;;;;24.67;15.20;;;;;;;;;;5049804;28;20254;-79
2021/12/16 10:40:43;;;;;;;25.27;15.23;;;;;;;;;;5033860;28;20207;-78
2021/12/16 10:43:28;;;;;;;25.43;14.57;;;;;;;;;;5066195;28;20210;-78
2021/12/16 10:46:03;;;;;;;23.20;14.57;;;;;;;;;;5065928;28;20174;-79
2021/12/16 10:48:33;;;;;;;22.73;14.50;;;;;;;;;;5066408;28;20185;-79
2021/12/16 10:50:59;;;;;;;24.07;14.50;;;;;;;;;;5050521;28;20548;-80
2021/12/16 10:53:44;;;;;;;22.47;13.90;;;;;;;;;;5067306;28;20178;-80
2021/12/16 10:56:11;;;;;;;26.87;15.50;;;;;;;;;;5066884;28;20231;-78
2021/12/16 10:58:47;;;;;;;23.73;14.60;;;;;;;;;;5066381;28;20192;-78
2021/12/16 11:01:32;;;;;;;23.90;15.13;;;;;;;;;;5066464;28;20250;-78
2021/12/16 11:03:59;;;;;;;25.57;14.83;;;;;;;;;;5068600;28;20205;-78
2021/12/16 11:06:29;;;;;;;26.63;15.20;;;;;;;;;;5067712;28;20212;-79
2021/12/16 11:08:55;;;;;;;128.43;68.70;;;;;;;;;;5049975;28;20648;-79
2021/12/16 11:11:29;;;;;;;80.37;39.63;;;;;;;;;;5066731;28;20190;-79
2021/12/16 11:14:05;;;;;;;77.17;37.27;;;;;;;;;;5036813;28;20173;-78
2021/12/16 11:16:32;;;;;;;32.40;19.67;;;;;;;;;;5050502;28;20652;-78
2021/12/16 11:18:58;;;;;;;33.50;19.53;;;;;;;;;;5066481;28;20181;-78
2021/12/16 11:21:31;;;;;;;52.20;28.87;;;;;;;;;;5049988;28;20213;-79
2021/12/16 11:23:57;;;;;;;62.33;32.07;;;;;;;;;;5064544;28;20676;-76
2021/12/16 11:26:28;;;;;;;22.23;13.37;;;;;;;;;;5049041;28;20177;-78
2021/12/16 11:28:55;;;;;;;18.93;12.57;;;;;;;;;;5067241;28;20156;-79
2021/12/16 11:31:24;;;;;;;21.67;13.20;;;;;;;;;;5098293;22;20213;-79
2021/12/16 11:33:52;;;;;;;22.00;12.93;;;;;;;;;;5059984;28;20251;-79
2021/12/16 11:36:18;;;;;;;18.97;12.63;;;;;;;;;;5061511;28;20185;-79
2021/12/16 11:38:49;;;;;;;20.03;13.53;;;;;;;;;;5061531;28;20178;-78
2021/12/16 11:41:18;;;;;;;22.50;13.77;;;;;;;;;;5060939;28;20188;-79
2021/12/16 11:43:47;;;;;;;21.40;13.67;;;;;;;;;;5040891;28;20207;-79
2021/12/16 11:46:16;;;;;;;23.27;14.43;;;;;;;;;;5040029;28;20212;-78
2021/12/16 11:48:42;;;;;;;21.73;14.30;;;;;;;;;;5040470;28;20226;-78
2021/12/16 11:51:10;;;;;;;19.47;12.87;;;;;;;;;;5039849;28;20659;-78
2021/12/16 11:53:43;;;;;;;20.00;13.47;;;;;;;;;;5039823;28;20194;-78
2021/12/16 11:56:10;;;;;;;21.30;13.90;;;;;;;;;;5055901;28;20184;-78
2021/12/16 11:58:36;;;;;;;20.03;13.50;;;;;;;;;;5039506;28;20228;-78
2021/12/16 12:01:11;;;;;;;22.43;14.13;;;;;;;;;;5038882;28;20182;-78
2021/12/16 12:03:37;;;;;;;23.03;14.07;;;;;;;;;;5039093;28;20231;-78
2021/12/16 12:06:03;;;;;;;24.77;14.17;;;;;;;;;;5023312;28;20539;-79
2021/12/16 12:08:31;;;;;;;22.73;13.63;;;;;;;;;;5023014;28;20182;-79
2021/12/16 12:11:00;;;;;;;20.93;13.67;;;;;;;;;;5022179;28;20174;-81
2021/12/16 12:13:28;;;;;;;21.63;13.83;;;;;;;;;;5040150;28;20204;-79
2021/12/16 12:16:20;;;;;;;20.53;12.40;;;;;;;;;;5039473;28;20192;-79
2021/12/16 12:18:52;;;;;;;18.93;12.47;;;;;;;;;;5037132;28;20189;-79
2021/12/16 12:21:21;;;;;;;21.07;13.10;;;;;;;;;;5039936;28;20181;-79
2021/12/16 12:23:48;;;;;;;20.73;13.03;;;;;;;;;;5056597;28;20189;-79
2021/12/16 12:26:19;;;;;;;20.53;13.63;;;;;;;;;;5039651;28;20255;-79
2021/12/16 12:28:45;;;;;;;22.40;12.87;;;;;;;;;;5039803;28;20188;-78
2021/12/16 12:31:12;;;;;;;29.60;18.23;;;;;;;;;;5039643;28;20174;-78
2021/12/16 12:33:38;;;;;;;22.07;14.07;;;;;;;;;;5039485;28;20210;-79
2021/12/16 12:36:05;;;;;;;20.70;13.27;;;;;;;;;;5039406;28;20206;-80
2021/12/16 12:38:31;;;;;;;23.83;14.40;;;;;;;;;;5039245;28;20181;-80
2021/12/16 12:40:58;;;;;;;21.13;13.90;;;;;;;;;;5037450;28;20189;-80
2021/12/16 12:43:24;;;;;;;21.70;13.93;;;;;;;;;;5040499;28;20213;-80
2021/12/16 12:45:50;;;;;;;20.73;14.67;;;;;;;;;;5043197;28;20189;-80
2021/12/16 12:48:17;;;;;;;22.73;14.70;;;;;;;;;;5043092;28;20174;-80
2021/12/16 12:50:46;;;;;;;22.40;14.17;;;;;;;;;;5042572;28;20200;-80
2021/12/16 12:53:12;;;;;;;21.80;14.33;;;;;;;;;;5044322;28;20212;-80
2021/12/16 12:55:39;;;;;;;22.00;14.77;;;;;;;;;;5044029;28;20176;-80
2021/12/16 12:58:12;;;;;;;21.63;13.93;;;;;;;;;;5061124;28;20201;-80
2021/12/16 13:00:38;;;;;;;26.73;16.70;;;;;;;;;;5042765;28;20199;-81
2021/12/16 13:03:11;;;;;;;30.27;19.63;;;;;;;;;;5042928;28;20299;-80
2021/12/16 13:05:37;;;;;;;25.93;15.37;;;;;;;;;;5041395;28;20560;-80
2021/12/16 13:08:08;;;;;;;27.07;16.33;;;;;;;;;;5041640;28;20189;-80
2021/12/16 13:10:45;;;;;;;25.27;16.03;;;;;;;;;;5042487;28;20178;-80
2021/12/16 13:13:42;;;;;;;25.20;16.43;;;;;;;;;;5040899;28;20204;-80
2021/12/16 13:27:06;;;;;;;28.60;15.67;;;;;;;;;;5058298;28;20169;-82
2021/12/16 13:32:16;;;;;;;24.90;16.00;;;;;;;;;;5058086;28;20307;-82
2021/12/16 13:35:10;;;;;;;29.37;17.23;;;;;;;;;;5043316;28;20174;-83
2021/12/16 13:37:39;;;;;;;26.87;15.70;;;;;;;;;;5046761;28;20177;-82
2021/12/16 13:40:08;;;;;;;27.57;15.80;;;;;;;;;;5059731;28;20197;-83
2021/12/16 13:42:42;;;;;;;28.37;16.83;;;;;;;;;;5047816;28;20223;-82
2021/12/16 13:45:13;;;;;;;28.23;16.07;;;;;;;;;;5047838;28;20215;-81
2021/12/16 14:00:04;;;;;;;27.20;15.50;;;;;;;;;;5056488;28;20199;-80
2021/12/16 14:05:00;;;;;;;27.90;15.90;;;;;;;;;;5056055;28;20212;-81
2021/12/16 14:07:58;;;;;;;25.40;15.27;;;;;;;;;;5037246;28;20253;-81
2021/12/16 14:10:35;;;;;;;30.40;16.37;;;;;;;;;;5037552;28;20180;-81
2021/12/16 14:46:28;;;;;;;29.30;17.20;;;;;;;;;;5024426;28;20174;-79
2021/12/16 14:48:55;;;;;;;33.70;20.67;;;;;;;;;;5016313;28;20173;-79
2021/12/16 14:51:21;;;;;;;29.37;17.73;;;;;;;;;;5021380;28;20177;-78
2021/12/16 14:53:49;;;;;;;29.93;16.63;;;;;;;;;;5037792;28;20172;-79
2021/12/16 14:56:18;;;;;;;29.20;16.20;;;;;;;;;;5035680;28;20266;-78
2021/12/16 14:58:45;;;;;;;32.17;16.60;;;;;;;;;;5022125;28;20183;-78
2021/12/16 15:01:16;;;;;;;28.23;16.67;;;;;;;;;;5021930;28;20232;-79
2021/12/16 15:03:43;;;;;;;29.13;16.30;;;;;;;;;;5020450;28;20205;-78
2021/12/16 15:06:11;;;;;;;28.90;17.03;;;;;;;;;;5035833;28;20205;-79
2021/12/16 15:08:48;;;;;;;32.23;17.07;;;;;;;;;;5019351;28;20203;-79
2021/12/16 15:11:26;;;;;;;27.93;16.53;;;;;;;;;;5019881;28;20205;-79
2021/12/16 15:13:57;;;;;;;30.40;16.73;;;;;;;;;;5035977;28;20169;-80
2021/12/16 15:16:43;;;;;;;26.37;15.93;;;;;;;;;;5036801;28;20231;-80
2021/12/16 15:35:08;;;;;;;28.77;16.07;;;;;;;;;;5053653;28;20267;-78
2021/12/16 15:39:21;;;;;;;22.73;14.83;;;;;;;;;;5053415;28;20247;-78
2021/12/16 15:44:31;;;;;;;34.67;17.10;;;;;;;;;;5037958;28;20204;-79
2021/12/16 15:46:57;;;;;;;31.80;16.27;;;;;;;;;;5034856;28;20177;-78
2021/12/16 15:49:24;;;;;;;32.20;16.40;;;;;;;;;;5035136;28;20258;-78
2021/12/16 15:51:51;;;;;;;32.33;17.63;;;;;;;;;;5034743;28;20198;-78
2021/12/16 15:54:18;;;;;;;39.40;23.33;;;;;;;;;;5034578;28;20735;-78
2021/12/16 15:56:47;;;;;;;32.30;17.80;;;;;;;;;;5034990;28;20202;-79
2021/12/16 15:59:14;;;;;;;29.63;15.43;;;;;;;;;;5035011;28;20178;-78
2021/12/16 16:01:42;;;;;;;30.97;16.53;;;;;;;;;;5034782;28;20198;-80
2021/12/16 16:04:30;;;;;;;30.07;16.10;;;;;;;;;;5034818;28;20247;-78
2021/12/16 16:06:58;;;;;;;31.53;16.93;;;;;;;;;;5035115;28;20245;-79
2021/12/16 16:09:25;;;;;;;32.63;16.80;;;;;;;;;;5018657;28;20173;-79
2021/12/16 16:11:52;;;;;;;33.77;17.40;;;;;;;;;;5034537;28;20224;-78
2021/12/16 16:14:19;;;;;;;35.50;16.23;;;;;;;;;;5018555;28;20185;-79
2021/12/16 16:16:49;;;;;;;31.10;16.47;;;;;;;;;;5037857;28;20174;-79
2021/12/16 16:19:21;;;;;;;29.57;15.37;;;;;;;;;;5043205;28;20177;-81
2021/12/16 16:21:49;;;;;;;29.57;15.40;;;;;;;;;;5033695;28;20665;-79
2021/12/16 16:24:18;;;;;;;31.23;16.87;;;;;;;;;;5018364;28;20233;-79
2021/12/16 16:26:45;;;;;;;27.63;15.43;;;;;;;;;;5029913;28;20180;-82
2021/12/16 16:29:14;;;;;;;28.50;16.40;;;;;;;;;;5010543;28;20185;-83
2021/12/16 16:31:41;;;;;;;30.57;16.20;;;;;;;;;;5019154;28;20232;-79
2021/12/16 16:34:18;;;;;;;28.53;15.37;;;;;;;;;;5019647;28;20162;-80
2021/12/16 16:36:45;;;;;;;28.47;15.87;;;;;;;;;;5018852;28;20181;-81
2021/12/16 16:39:13;;;;;;;31.20;15.77;;;;;;;;;;5019216;28;20175;-80
2021/12/16 16:41:51;;;;;;;30.63;16.07;;;;;;;;;;5018973;28;20198;-80
2021/12/16 16:44:18;;;;;;;27.10;14.13;;;;;;;;;;5018551;28;20194;-81
2021/12/16 16:46:53;;;;;;;27.93;15.13;;;;;;;;;;5018506;28;20224;-80
2021/12/16 16:49:47;;;;;;;29.13;15.20;;;;;;;;;;5018425;28;20165;-79
2021/12/16 16:52:16;;;;;;;29.33;15.43;;;;;;;;;;5035942;28;20193;-83
2021/12/16 16:54:45;;;;;;;23.87;14.07;;;;;;;;;;5017739;28;20182;-83
2021/12/16 16:57:22;;;;;;;28.03;15.00;;;;;;;;;;5017758;28;20193;-83
2021/12/16 16:59:49;;;;;;;29.53;14.83;;;;;;;;;;5017400;28;20181;-83
2021/12/16 17:02:34;;;;;;;28.37;15.10;;;;;;;;;;5017339;28;20198;-82
2021/12/16 17:05:07;;;;;;;31.77;15.03;;;;;;;;;;5017484;28;20292;-81
2021/12/16 17:07:44;;;;;;;27.80;15.47;;;;;;;;;;5017193;28;20182;-81
2021/12/16 17:10:29;;;;;;;29.27;15.53;;;;;;;;;;5017760;28;20186;-82
2021/12/16 17:13:01;;;;;;;26.30;14.27;;;;;;;;;;5017599;28;20264;-82
2021/12/16 17:15:43;;;;;;;26.33;13.97;;;;;;;;;;5017325;28;20277;-82
2021/12/16 17:18:18;;;;;;;24.83;13.37;;;;;;;;;;5017719;28;20217;-82
2021/12/16 17:20:44;;;;;;;26.83;14.43;;;;;;;;;;5017313;28;20185;-84
2021/12/16 17:23:13;;;;;;;27.13;14.37;;;;;;;;;;5017215;28;20648;-82
2021/12/16 17:25:39;;;;;;;35.53;17.40;;;;;;;;;;5017387;28;20257;-81
2021/12/16 17:28:05;;;;;;;31.37;15.90;;;;;;;;;;5017193;28;20256;-80
2021/12/16 17:30:37;;;;;;;30.73;15.00;;;;;;;;;;5017500;28;20269;-81
2021/12/16 17:33:05;;;;;;;27.63;14.30;;;;;;;;;;5063015;22;20315;-77
2021/12/16 17:35:36;;;;;;;27.70;14.17;;;;;;;;;;5074329;28;20223;-78
2021/12/16 17:38:22;;;;;;;25.17;13.60;;;;;;;;;;5056385;28;20191;-79
2021/12/16 17:40:53;;;;;;;22.27;13.03;;;;;;;;;;5056287;28;20184;-78
2021/12/16 17:43:33;;;;;;;27.27;13.17;;;;;;;;;;5056378;28;20297;-78
2021/12/16 17:46:05;;;;;;;24.87;14.03;;;;;;;;;;5056722;28;20166;-77
2021/12/16 17:48:33;;;;;;;25.13;14.27;;;;;;;;;;5074122;28;20193;-76
2021/12/16 17:51:01;;;;;;;26.17;14.17;;;;;;;;;;5056428;28;20180;-77
2021/12/16 17:53:27;;;;;;;27.80;14.60;;;;;;;;;;5056370;28;20564;-77
2021/12/16 17:55:59;;;;;;;30.20;14.80;;;;;;;;;;5056222;28;20173;-77
2021/12/16 17:58:26;;;;;;;26.07;13.63;;;;;;;;;;5055942;28;20187;-76
2021/12/16 18:00:54;;;;;;;29.67;16.73;;;;;;;;;;5056169;28;20234;-77
2021/12/16 18:03:29;;;;;;;30.00;16.00;;;;;;;;;;5055602;28;20197;-76
2021/12/16 18:05:57;;;;;;;33.83;17.23;;;;;;;;;;5055918;28;20177;-76
2021/12/16 18:08:43;;;;;;;39.97;20.93;;;;;;;;;;5055922;28;20246;-77
2021/12/16 18:11:16;;;;;;;36.43;16.97;;;;;;;;;;5055796;28;20223;-77
2021/12/16 18:13:42;;;;;;;48.43;27.40;;;;;;;;;;5055767;28;20204;-78